Time;durP1;ratioP1;P1;durP2;ratioP2;P2;SDS_P1;SDS_P2;PMS_P1;PMS_P2;Temp;Humidity;BMP_temperature;BMP_pressure;BME280_temperature;BME280_humidity;BME280_pressure;Samples;Min_cycle;Max_cycle;Signal;HPM_P1;HPM_P2
2023/02/19 00:01:14;;;;;;;2.90;1.80;;;;;;;9.89;100.00;95934.06;4985265;28;20629;-75
2023/02/19 00:03:49;;;;;;;3.60;1.65;;;;;;;9.92;100.00;95939.88;4983106;28;20046;-75
2023/02/19 00:06:14;;;;;;;3.13;1.90;;;;;;;9.85;100.00;95922.47;4985702;28;20042;-75
2023/02/19 00:08:40;;;;;;;2.85;1.77;;;;;;;9.85;100.00;95930.34;4989884;28;20058;-75
2023/02/19 00:11:14;;;;;;;2.65;1.90;;;;;;;9.84;100.00;95923.53;4991323;28;20046;-74
2023/02/19 00:13:42;;;;;;;2.35;1.63;;;;;;;9.83;100.00;95910.66;4993064;28;20046;-75
2023/02/19 00:16:08;;;;;;;2.95;1.58;;;;;;;9.86;100.00;95916.19;4995877;28;20051;-75
2023/02/19 00:18:34;;;;;;;3.85;2.10;;;;;;;9.82;100.00;95915.09;4996970;28;20413;-74
2023/02/19 00:21:00;;;;;;;3.03;1.80;;;;;;;9.82;100.00;95911.69;5001874;28;20030;-74
2023/02/19 00:23:26;;;;;;;3.08;1.80;;;;;;;9.83;100.00;95916.69;4996665;28;20038;-75
2023/02/19 00:25:53;;;;;;;4.13;1.73;;;;;;;9.78;100.00;95908.75;4993968;28;20050;-75
2023/02/19 00:28:19;;;;;;;4.35;2.00;;;;;;;9.84;100.00;95907.75;4988702;28;20514;-75
2023/02/19 00:30:44;;;;;;;3.65;1.90;;;;;;;9.88;100.00;95919.34;4992479;28;20042;-76
2023/02/19 00:33:10;;;;;;;2.90;1.77;;;;;;;9.86;100.00;95910.91;4991822;28;20042;-75
2023/02/19 00:35:35;;;;;;;2.95;1.70;;;;;;;9.80;100.00;95906.69;4993103;28;20049;-76
2023/02/19 00:38:02;;;;;;;3.13;1.80;;;;;;;9.81;100.00;95910.91;4993732;28;20074;-74
2023/02/19 00:40:27;;;;;;;2.78;1.70;;;;;;;9.81;100.00;95908.28;4992426;28;20046;-74
2023/02/19 00:42:53;;;;;;;3.35;1.90;;;;;;;9.82;100.00;95915.09;4986078;28;20046;-74
2023/02/19 00:45:18;;;;;;;3.60;2.00;;;;;;;9.75;100.00;95909.28;4991742;28;20062;-74
2023/02/19 00:47:44;;;;;;;2.22;1.65;;;;;;;9.78;100.00;95903.50;4993534;28;20081;-75
2023/02/19 00:50:09;;;;;;;4.40;1.92;;;;;;;9.78;100.00;95908.75;4990946;28;20502;-75
2023/02/19 00:52:35;;;;;;;3.15;1.85;;;;;;;9.74;100.00;95907.72;4992456;28;20696;-75
2023/02/19 00:55:01;;;;;;;3.22;1.80;;;;;;;9.75;100.00;95904.00;4993009;28;20065;-75
2023/02/19 00:57:27;;;;;;;3.35;1.80;;;;;;;9.82;100.00;95899.31;4991347;28;20061;-75
2023/02/19 00:59:52;;;;;;;4.00;2.10;;;;;;;9.78;100.00;95895.63;5001396;28;20565;-76
2023/02/19 01:02:18;;;;;;;3.78;2.17;;;;;;;9.71;100.00;95893.22;4992604;28;20498;-76
2023/02/19 01:04:43;;;;;;;2.33;1.70;;;;;;;9.73;100.00;95894.81;4992480;28;20077;-74
2023/02/19 01:07:09;;;;;;;3.08;1.73;;;;;;;9.73;100.00;95889.56;4991836;28;20101;-74
2023/02/19 01:09:35;;;;;;;3.17;1.98;;;;;;;9.69;100.00;95879.53;4991035;28;20042;-75
2023/02/19 01:12:00;;;;;;;4.43;2.10;;;;;;;9.70;100.00;95880.34;4992140;28;20042;-75
2023/02/19 01:14:26;;;;;;;3.65;1.73;;;;;;;9.68;100.00;95877.16;4991382;28;20038;-75
2023/02/19 01:16:52;;;;;;;2.78;1.70;;;;;;;9.64;100.00;95887.41;5005328;28;20582;-75
2023/02/19 01:19:17;;;;;;;3.38;1.92;;;;;;;9.66;100.00;95879.28;4990964;28;20085;-75
2023/02/19 01:21:43;;;;;;;3.65;1.80;;;;;;;9.70;100.00;95872.47;4991370;28;20048;-75
2023/02/19 01:24:08;;;;;;;2.85;1.77;;;;;;;9.60;100.00;95875.03;4990951;28;20043;-75
2023/02/19 01:26:34;;;;;;;1.92;1.60;;;;;;;9.65;100.00;95872.44;4990298;28;20043;-75
2023/02/19 01:29:00;;;;;;;4.47;1.98;;;;;;;9.59;100.00;95866.34;4990572;28;20034;-74
2023/02/19 01:31:26;;;;;;;3.08;1.80;;;;;;;9.54;100.00;95861.84;4991370;28;20038;-75
2023/02/19 01:33:55;;;;;;;3.58;1.90;;;;;;;9.56;100.00;95858.97;4986434;28;20043;-75
2023/02/19 01:36:21;;;;;;;2.90;1.80;;;;;;;9.47;100.00;95856.03;4990492;28;20034;-75
2023/02/19 01:38:47;;;;;;;3.72;2.13;;;;;;;9.44;100.00;95861.81;4985385;28;20532;-75
2023/02/19 01:41:15;;;;;;;3.05;1.80;;;;;;;9.49;100.00;95861.03;4990828;28;20042;-75
2023/02/19 01:44:06;;;;;;;4.50;1.90;;;;;;;9.53;100.00;95860.28;4990345;28;20050;-75
2023/02/19 01:46:34;;;;;;;2.58;1.77;;;;;;;9.47;100.00;95850.78;4988182;28;20112;-75
2023/02/19 01:49:05;;;;;;;2.67;1.67;;;;;;;9.50;100.00;95855.53;4992811;28;20444;-75
2023/02/19 01:51:34;;;;;;;2.53;1.80;;;;;;;9.39;100.00;95848.63;4992259;28;20042;-75
2023/02/19 01:54:01;;;;;;;3.55;1.88;;;;;;;9.44;100.00;95851.28;4990315;28;20042;-75
2023/02/19 01:56:29;;;;;;;4.75;1.90;;;;;;;9.50;100.00;95850.28;5000056;28;20112;-74
2023/02/19 01:58:54;;;;;;;3.42;1.80;;;;;;;9.45;100.00;95842.38;4993335;28;20109;-74
2023/02/19 02:01:20;;;;;;;3.38;1.90;;;;;;;9.44;100.00;95840.78;4996026;28;20490;-75
2023/02/19 02:03:48;;;;;;;3.55;1.85;;;;;;;9.43;100.00;95833.94;4988819;28;20092;-75
2023/02/19 02:06:21;;;;;;;2.65;1.80;;;;;;;9.46;100.00;95833.44;4999210;28;20046;-75
2023/02/19 02:11:35;;;;;;;3.30;1.90;;;;;;;9.38;100.00;95830.50;4989729;28;20047;-75
2023/02/19 02:14:02;;;;;;;3.28;1.90;;;;;;;9.35;100.00;95837.03;4995537;28;20578;-77
2023/02/19 02:16:31;;;;;;;3.38;1.92;;;;;;;9.39;100.00;95843.38;4992089;28;20053;-74
2023/02/19 02:19:26;;;;;;;3.50;2.00;;;;;;;9.41;100.00;95836.03;4990721;28;20038;-74
2023/02/19 02:22:05;;;;;;;5.03;2.20;;;;;;;9.33;100.00;95836.50;4991567;28;20046;-74
2023/02/19 02:25:02;;;;;;;4.50;1.92;;;;;;;9.17;100.00;95831.16;4989836;28;20468;-74
2023/02/19 02:27:43;;;;;;;3.10;1.80;;;;;;;9.17;100.00;95825.88;4986245;28;20109;-74
2023/02/19 02:30:36;;;;;;;3.20;2.00;;;;;;;9.06;100.00;95824.22;4988451;28;20071;-75
2023/02/19 02:33:09;;;;;;;4.40;2.20;;;;;;;9.03;100.00;95819.50;4990522;28;20046;-75
2023/02/19 02:35:56;;;;;;;5.00;2.00;;;;;;;8.92;100.00;95829.13;4990488;28;20097;-74
2023/02/19 02:38:26;;;;;;;2.92;1.77;;;;;;;8.94;100.00;95821.00;4999144;28;20038;-74
2023/02/19 02:40:53;;;;;;;3.55;1.90;;;;;;;8.88;100.00;95812.31;4991059;28;20054;-75
2023/02/19 02:43:18;;;;;;;4.03;1.98;;;;;;;8.83;100.00;95802.56;4995062;28;20069;-75
2023/02/19 02:45:44;;;;;;;3.70;2.05;;;;;;;8.80;100.00;95810.91;4991840;28;20038;-75
2023/02/19 02:48:23;;;;;;;3.47;1.80;;;;;;;8.84;100.00;95821.72;4991355;28;20485;-75
2023/02/19 02:50:53;;;;;;;3.88;2.05;;;;;;;8.75;100.00;95810.88;4989241;28;20046;-75
2023/02/19 02:56:11;;;;;;;7.03;2.28;;;;;;;8.56;100.00;95793.91;4991998;28;20042;-74
2023/02/19 02:58:37;;;;;;;3.90;2.00;;;;;;;8.45;100.00;95788.59;4987614;28;20046;-74
2023/02/19 03:03:58;;;;;;;3.60;2.20;;;;;;;8.30;100.00;95796.25;4985369;28;20046;-74
2023/02/19 03:06:28;;;;;;;5.80;2.10;;;;;;;8.19;100.00;95779.66;4991294;28;20686;-74
2023/02/19 03:09:09;;;;;;;3.60;2.22;;;;;;;8.19;100.00;95770.97;4988633;28;20560;-74
2023/02/19 03:20:23;;;;;;;4.10;2.40;;;;;;;7.93;100.00;95782.00;4994324;28;20096;-75
2023/02/19 03:22:51;;;;;;;3.53;2.10;;;;;;;7.92;100.00;95795.34;4992401;28;20050;-75
2023/02/19 03:28:08;;;;;;;4.43;2.45;;;;;;;7.58;100.00;95795.47;4997809;28;20074;-75
2023/02/19 03:30:40;;;;;;;6.80;2.65;;;;;;;7.58;100.00;95790.22;4988479;28;20045;-75
2023/02/19 03:33:10;;;;;;;4.65;2.65;;;;;;;7.51;100.00;95784.38;4981552;28;20054;-74
2023/02/19 03:35:45;;;;;;;4.03;2.30;;;;;;;7.48;100.00;95787.50;4990438;28;20046;-74
2023/02/19 03:38:10;;;;;;;;;;;;;;;7.38;100.00;95791.53;4988858;28;20613;-74
2023/02/19 03:40:50;;;;;;;6.57;2.70;;;;;;;7.32;100.00;95805.59;4996044;28;19929;-73
2023/02/19 03:43:47;;;;;;;4.82;3.00;;;;;;;7.29;100.00;95803.47;4988672;28;20427;-74
2023/02/19 03:46:16;;;;;;;5.88;3.15;;;;;;;7.19;100.00;95792.88;4988857;28;20070;-74
2023/02/19 03:48:50;;;;;;;7.43;3.25;;;;;;;7.03;100.00;95784.78;4990487;28;20042;-73
2023/02/19 03:51:42;;;;;;;5.05;3.10;;;;;;;6.97;100.00;95785.75;4988828;28;20061;-75
2023/02/19 03:54:33;;;;;;;5.63;3.50;;;;;;;6.97;100.00;95790.97;4990463;28;20601;-74
2023/02/19 03:57:17;;;;;;;7.95;3.38;;;;;;;6.93;100.00;95787.25;4998353;28;20046;-75
2023/02/19 03:59:49;;;;;;;7.57;3.55;;;;;;;6.96;100.00;95784.16;4986317;28;20038;-75
2023/02/19 04:02:28;;;;;;;11.90;3.80;;;;;;;6.88;100.00;95776.69;4996729;28;20043;-74
2023/02/19 04:05:02;;;;;;;5.32;3.25;;;;;;;6.84;100.00;95780.81;4997299;28;20046;-73
2023/02/19 04:07:33;;;;;;;11.65;3.55;;;;;;;6.85;100.00;95787.66;4996009;28;20050;-74
2023/02/19 04:09:59;;;;;;;6.55;3.67;;;;;;;6.87;100.00;95785.59;4990739;28;20074;-74
2023/02/19 04:12:26;;;;;;;7.18;3.65;;;;;;;6.85;100.00;95782.41;4988984;28;20043;-74
2023/02/19 04:14:59;;;;;;;7.25;3.70;;;;;;;6.85;100.00;95782.41;4988696;28;20409;-74
2023/02/19 04:17:40;;;;;;;6.68;3.78;;;;;;;6.82;100.00;95775.03;4989429;28;20105;-74
2023/02/19 04:20:08;;;;;;;5.55;3.38;;;;;;;6.81;100.00;95773.44;5015781;28;20077;-74
2023/02/19 04:22:36;;;;;;;6.57;3.70;;;;;;;6.82;100.00;95772.44;4993971;28;20482;-74
2023/02/19 04:25:02;;;;;;;6.53;3.53;;;;;;;6.81;100.00;95770.84;4989868;28;20468;-74
2023/02/19 04:27:27;;;;;;;7.60;3.42;;;;;;;6.76;100.00;95754.03;4989826;28;20049;-74
2023/02/19 04:29:53;;;;;;;6.78;3.90;;;;;;;6.75;100.00;95757.69;4996683;28;20395;-74
2023/02/19 04:32:19;;;;;;;7.40;3.67;;;;;;;6.68;100.00;95751.84;4987472;28;20038;-74
2023/02/19 04:34:44;;;;;;;7.88;3.97;;;;;;;6.75;100.00;95752.47;4988560;28;20060;-74
2023/02/19 04:37:10;;;;;;;7.97;3.78;;;;;;;6.68;100.00;95772.75;4997288;28;20134;-73
2023/02/19 04:39:35;;;;;;;10.95;4.05;;;;;;;6.71;100.00;95767.03;4988617;28;20046;-73
2023/02/19 04:42:01;;;;;;;10.07;4.22;;;;;;;6.68;100.00;95762.28;4988197;28;20108;-74
2023/02/19 04:44:27;;;;;;;7.82;4.00;;;;;;;6.70;100.00;95770.69;4989026;28;20061;-73
2023/02/19 04:46:53;;;;;;;7.10;3.63;;;;;;;6.64;100.00;95766.41;4988028;28;20042;-73
2023/02/19 04:49:18;;;;;;;6.60;3.90;;;;;;;6.70;100.00;95781.16;4987646;28;20120;-74
2023/02/19 04:51:44;;;;;;;7.57;3.85;;;;;;;6.71;100.00;95767.03;4988139;28;20054;-75
2023/02/19 04:54:09;;;;;;;9.43;4.35;;;;;;;6.67;100.00;95776.41;4991323;28;20058;-75
2023/02/19 04:56:35;;;;;;;8.98;4.50;;;;;;;6.73;100.00;95775.44;4986234;28;20034;-74
2023/02/19 04:59:00;;;;;;;8.00;4.32;;;;;;;6.69;100.00;95784.78;4986047;28;20550;-76
2023/02/19 05:01:26;;;;;;;7.18;4.28;;;;;;;6.75;100.00;95791.69;4983216;28;20114;-75
2023/02/19 05:03:51;;;;;;;8.82;4.80;;;;;;;6.79;100.00;95788.59;4988206;28;20528;-75
2023/02/19 05:06:17;;;;;;;9.80;4.70;;;;;;;6.71;100.00;95792.38;4998279;28;20041;-75
2023/02/19 05:08:43;;;;;;;9.50;4.50;;;;;;;6.73;100.00;95785.91;5018531;28;20039;-75
2023/02/19 05:11:10;;;;;;;14.45;5.47;;;;;;;6.68;100.00;95783.22;5017609;28;20030;-75
2023/02/19 05:13:37;;;;;;;11.88;4.88;;;;;;;6.73;100.00;95785.13;5018320;28;20030;-75
2023/02/19 05:16:06;;;;;;;9.13;5.15;;;;;;;6.76;100.00;95795.88;5018915;28;20058;-75
2023/02/19 05:18:33;;;;;;;11.60;5.43;;;;;;;6.78;100.00;95784.41;5018221;28;20503;-75
2023/02/19 05:20:59;;;;;;;10.52;4.43;;;;;;;6.83;100.00;95779.25;5017209;28;20046;-75
2023/02/19 05:23:26;;;;;;;9.93;4.53;;;;;;;6.82;100.00;95782.91;5010924;28;20038;-75
2023/02/19 05:25:52;;;;;;;11.38;5.00;;;;;;;6.81;100.00;95786.53;5018815;28;20042;-75
2023/02/19 05:28:18;;;;;;;11.65;5.13;;;;;;;6.85;100.00;95787.66;5017053;28;20036;-75
2023/02/19 05:30:46;;;;;;;10.73;5.10;;;;;;;6.84;100.00;95788.66;5012711;28;20030;-75
2023/02/19 05:33:13;;;;;;;14.88;4.95;;;;;;;6.83;100.00;95795.72;4994025;28;20101;-76
2023/02/19 05:35:47;;;;;;;11.15;4.65;;;;;;;6.92;100.00;95798.75;4991349;28;20038;-76
2023/02/19 05:38:13;;;;;;;11.20;4.50;;;;;;;6.86;100.00;95799.69;4989981;28;20100;-76
2023/02/19 05:40:39;;;;;;;9.55;4.55;;;;;;;6.87;100.00;95796.06;5001753;28;20046;-75
2023/02/19 05:43:06;;;;;;;9.43;4.22;;;;;;;6.80;100.00;95795.44;4992382;28;20038;-76
2023/02/19 05:45:32;;;;;;;9.95;4.22;;;;;;;6.96;100.00;95815.56;4988020;28;20038;-76
2023/02/19 05:47:58;;;;;;;12.65;4.72;;;;;;;6.94;100.00;95809.78;4992565;28;20046;-76
2023/02/19 05:50:23;;;;;;;7.63;3.47;;;;;;;6.93;100.00;95805.56;4990585;28;20429;-76
2023/02/19 05:52:49;;;;;;;8.88;3.60;;;;;;;6.94;100.00;95812.41;4990330;28;20102;-76
2023/02/19 05:55:14;;;;;;;9.10;4.32;;;;;;;6.96;100.00;95815.56;4991581;28;20521;-76
2023/02/19 05:57:41;;;;;;;7.50;3.35;;;;;;;7.00;100.00;95819.28;4989301;28;20533;-76
2023/02/19 06:00:08;;;;;;;7.22;3.30;;;;;;;6.96;100.00;95820.78;4989749;28;20038;-76
2023/02/19 06:02:35;;;;;;;7.07;3.35;;;;;;;6.98;100.00;95829.19;4989452;28;20042;-76
2023/02/19 06:05:01;;;;;;;8.98;3.53;;;;;;;7.00;100.00;95827.13;4991233;28;20053;-76
2023/02/19 06:07:26;;;;;;;8.45;3.05;;;;;;;7.03;100.00;95831.88;4991419;28;20043;-75
2023/02/19 06:09:52;;;;;;;11.10;3.10;;;;;;;7.02;100.00;95825.06;4989702;28;20035;-76
2023/02/19 06:12:18;;;;;;;8.00;3.47;;;;;;;6.97;100.00;95827.63;4989926;28;20065;-76
2023/02/19 06:14:43;;;;;;;4.47;2.50;;;;;;;7.05;100.00;95835.06;4992041;28;20129;-76
2023/02/19 06:17:09;;;;;;;5.32;2.85;;;;;;;7.10;100.00;95831.72;4989593;28;20473;-76
2023/02/19 06:19:34;;;;;;;5.30;2.78;;;;;;;7.07;100.00;95833.00;4990799;28;20039;-76
2023/02/19 06:22:00;;;;;;;5.00;2.40;;;;;;;7.03;100.00;95831.88;4989150;28;20041;-76
2023/02/19 06:24:25;;;;;;;4.65;2.50;;;;;;;7.08;100.00;95829.38;4974174;28;20501;-76
2023/02/19 06:26:51;;;;;;;4.03;2.25;;;;;;;7.03;100.00;95831.88;4990149;28;20085;-75
2023/02/19 06:29:16;;;;;;;4.95;2.35;;;;;;;7.04;100.00;95838.72;4989659;28;20042;-76
2023/02/19 06:31:43;;;;;;;5.10;2.28;;;;;;;7.15;100.00;95849.34;4991326;28;20092;-76
2023/02/19 06:34:08;;;;;;;3.60;1.85;;;;;;;7.20;100.00;95852.03;4987022;28;20053;-76
2023/02/19 06:36:34;;;;;;;3.95;2.30;;;;;;;7.16;100.00;95861.41;4983814;28;20043;-76
2023/02/19 06:39:00;;;;;;;3.20;2.10;;;;;;;7.21;100.00;95856.22;4987889;28;20042;-76
2023/02/19 06:41:25;;;;;;;4.68;2.30;;;;;;;7.18;100.00;95862.72;4986968;28;20042;-76
2023/02/19 06:43:51;;;;;;;4.47;2.50;;;;;;;7.26;100.00;95862.31;4990195;28;20557;-75
2023/02/19 06:46:16;;;;;;;3.25;2.03;;;;;;;7.26;100.00;95861.53;4990381;28;20104;-75
2023/02/19 06:48:43;;;;;;;3.47;2.17;;;;;;;7.28;100.00;95869.94;4989863;28;20100;-75
2023/02/19 06:51:14;;;;;;;4.65;2.25;;;;;;;7.32;100.00;95871.06;4990595;28;20050;-75
2023/02/19 06:53:40;;;;;;;2.78;1.92;;;;;;;7.29;100.00;95868.91;4989711;28;20801;-75
2023/02/19 06:56:21;;;;;;;4.07;1.95;;;;;;;7.39;100.00;95876.91;4988815;28;20039;-75
2023/02/19 06:58:46;;;;;;;3.33;2.00;;;;;;;7.46;100.00;95882.78;4988245;28;20049;-76
2023/02/19 07:01:12;;;;;;;5.15;2.10;;;;;;;7.44;100.00;95884.88;4995032;28;20042;-76
2023/02/19 07:03:37;;;;;;;3.03;2.00;;;;;;;7.45;100.00;95875.94;4994076;28;20512;-76
2023/02/19 07:06:03;;;;;;;3.25;2.00;;;;;;;7.52;100.00;95885.50;5002652;28;20051;-76
2023/02/19 07:08:29;;;;;;;3.10;1.90;;;;;;;7.55;100.00;95890.25;4989992;28;20046;-76
2023/02/19 07:10:56;;;;;;;3.65;2.08;;;;;;;7.58;100.00;95905.47;4989076;28;20045;-75
2023/02/19 07:13:26;;;;;;;3.20;2.05;;;;;;;7.66;100.00;95912.13;4993146;28;20042;-77
2023/02/19 07:15:57;;;;;;;3.58;2.10;;;;;;;7.66;100.00;95902.44;4988905;28;20034;-75
2023/02/19 07:18:23;;;;;;;4.15;1.92;;;;;;;7.77;100.00;95903.38;4988502;28;20046;-72
2023/02/19 07:20:49;;;;;;;3.00;2.13;;;;;;;7.73;100.00;95913.56;4990697;28;20042;-72
2023/02/19 07:23:14;;;;;;;2.67;1.95;;;;;;;7.74;100.00;95930.88;4986729;28;20069;-76
2023/02/19 07:25:40;;;;;;;5.43;2.35;;;;;;;7.70;100.00;95919.28;4985743;28;20061;-76
2023/02/19 07:28:06;;;;;;;4.10;2.10;;;;;;;7.65;100.00;95916.56;4989397;28;20042;-76
2023/02/19 07:30:32;;;;;;;4.07;2.20;;;;;;;7.59;100.00;95917.53;4985240;28;20438;-76
2023/02/19 07:32:58;;;;;;;3.05;2.10;;;;;;;7.54;100.00;95920.06;4984471;28;20042;-76
2023/02/19 07:35:23;;;;;;;4.72;2.30;;;;;;;7.56;100.00;95928.50;4989790;28;20042;-75
2023/02/19 07:37:49;;;;;;;3.75;2.47;;;;;;;7.56;100.00;95923.25;4989235;28;20073;-77
2023/02/19 07:40:14;;;;;;;3.67;2.30;;;;;;;7.62;100.00;95930.16;4988302;28;20096;-76
2023/02/19 07:42:40;;;;;;;5.00;2.58;;;;;;;7.59;100.00;95938.50;4990217;28;20058;-76
2023/02/19 07:45:06;;;;;;;4.30;2.33;;;;;;;7.66;100.00;95928.66;4984928;28;20387;-76
2023/02/19 07:47:32;;;;;;;3.10;2.10;;;;;;;7.65;100.00;95937.53;4983332;28;20103;-76
2023/02/19 07:49:57;;;;;;;6.55;2.42;;;;;;;7.68;100.00;95942.28;4986700;28;20035;-76
2023/02/19 07:52:23;;;;;;;3.78;2.30;;;;;;;7.69;100.00;95946.50;4986987;28;20065;-75
2023/02/19 07:54:48;;;;;;;3.35;2.28;;;;;;;7.69;100.00;95949.13;4987863;28;20053;-76
2023/02/19 07:57:14;;;;;;;3.55;2.30;;;;;;;7.70;100.00;95949.91;4987827;28;20126;-75
2023/02/19 07:59:40;;;;;;;5.55;2.67;;;;;;;7.69;100.00;95953.56;4990544;28;20050;-76
2023/02/19 08:05:05;;;;;;;4.53;2.40;;;;;;;7.75;100.00;95974.34;4988723;28;20490;-76
2023/02/19 08:07:34;;;;;;;4.97;2.72;;;;;;;7.75;100.00;95971.72;4989679;28;20047;-76
2023/02/19 08:15:38;;;;;;;3.95;2.72;;;;;;;7.64;100.00;95977.84;4989910;28;20050;-75
2023/02/19 08:18:04;;;;;;;4.28;2.78;;;;;;;7.65;100.00;95979.44;4990736;28;20053;-74
2023/02/19 08:20:29;;;;;;;4.10;2.58;;;;;;;7.59;100.00;95990.88;4995869;28;20042;-75
2023/02/19 08:22:55;;;;;;;6.00;2.80;;;;;;;7.56;100.00;95991.38;4989025;28;20042;-74
2023/02/19 08:25:20;;;;;;;6.65;3.20;;;;;;;7.59;100.00;96001.34;4987823;28;20405;-74
2023/02/19 08:27:46;;;;;;;6.40;3.20;;;;;;;7.50;100.00;96010.63;4988944;28;20038;-74
2023/02/19 08:30:11;;;;;;;4.78;2.90;;;;;;;7.41;100.00;96005.78;4987736;28;20057;-74
2023/02/19 08:32:37;;;;;;;4.63;2.70;;;;;;;7.43;100.00;95998.50;4986959;28;20425;-75
2023/02/19 08:35:03;;;;;;;4.78;2.80;;;;;;;7.48;100.00;96005.63;4987632;28;20077;-75
2023/02/19 08:37:28;;;;;;;7.05;3.55;;;;;;;7.44;100.00;96010.56;4987348;28;20124;-75
2023/02/19 08:39:53;;;;;;;5.75;3.15;;;;;;;7.42;100.00;96006.56;4993223;28;20057;-75
2023/02/19 08:42:19;;;;;;;6.18;3.15;;;;;;;7.42;100.00;96007.38;4991639;28;20517;-76
2023/02/19 08:44:44;;;;;;;5.43;3.42;;;;;;;7.48;100.00;96010.88;4991218;28;20494;-75
2023/02/19 08:47:10;;;;;;;5.22;3.22;;;;;;;7.49;100.00;96009.06;4992022;28;20058;-76
2023/02/19 08:49:35;;;;;;;6.07;3.17;;;;;;;7.63;100.00;96007.72;4991137;28;20035;-75
2023/02/19 08:52:01;;;;;;;5.68;3.38;;;;;;;7.70;100.00;96018.84;4993466;28;20129;-75
2023/02/19 08:54:26;;;;;;;6.72;3.30;;;;;;;7.69;100.00;96022.47;4991796;28;20034;-76
2023/02/19 08:56:52;;;;;;;4.90;2.85;;;;;;;7.74;100.00;96024.38;4990134;28;20078;-73
2023/02/19 08:59:19;;;;;;;8.27;3.10;;;;;;;7.77;100.00;96024.69;4992691;28;20402;-76
2023/02/19 09:01:45;;;;;;;7.63;3.35;;;;;;;7.84;100.00;96034.22;4990983;28;20046;-75
2023/02/19 09:04:11;;;;;;;5.43;3.22;;;;;;;7.78;100.00;96036.75;4990268;28;20050;-77
2023/02/19 09:06:37;;;;;;;7.20;3.78;;;;;;;7.75;100.00;96028.59;4991725;28;20042;-76
2023/02/19 09:09:03;;;;;;;6.35;3.60;;;;;;;7.74;100.00;96034.84;4992402;28;20058;-76
2023/02/19 09:11:28;;;;;;;6.35;3.60;;;;;;;7.71;100.00;96043.97;4990542;28;20130;-76
2023/02/19 09:13:55;;;;;;;7.05;3.70;;;;;;;7.80;100.00;96049.63;4992315;28;20398;-76
2023/02/19 09:16:21;;;;;;;6.45;3.85;;;;;;;7.79;100.00;96043.59;4993258;28;20053;-76
2023/02/19 09:18:46;;;;;;;7.32;3.70;;;;;;;7.88;100.00;96040.56;4991589;28;20046;-76
2023/02/19 09:21:12;;;;;;;7.88;3.53;;;;;;;7.85;100.00;96041.06;4990481;28;20042;-77
2023/02/19 09:23:37;;;;;;;7.25;3.92;;;;;;;8.02;100.00;96031.34;4992068;28;20042;-77
2023/02/19 09:26:08;;;;;;;7.03;4.05;;;;;;;8.12;100.00;96047.22;4992582;28;20137;-76
2023/02/19 09:28:34;;;;;;;6.32;3.58;;;;;;;8.25;100.00;96040.06;4990022;28;20050;-77
2023/02/19 09:31:09;;;;;;;5.57;2.95;;;;;;;8.21;100.00;96036.34;4989367;28;20406;-74
2023/02/19 09:33:35;;;;;;;9.43;3.70;;;;;;;8.24;100.00;96043.72;4989763;28;20038;-74
2023/02/19 09:36:01;;;;;;;5.78;3.08;;;;;;;8.26;100.00;96036.41;4995415;28;20045;-75
2023/02/19 09:38:28;;;;;;;4.72;2.88;;;;;;;8.44;100.00;96038.78;4996843;28;20042;-75
2023/02/19 09:40:56;;;;;;;5.35;3.00;;;;;;;8.70;100.00;96044.34;4991925;28;20097;-75
2023/02/19 09:43:25;;;;;;;5.50;3.30;;;;;;;8.88;100.00;96043.25;4988101;28;20042;-75
2023/02/19 09:46:01;;;;;;;8.02;3.00;;;;;;;9.05;100.00;96031.88;4990621;28;20046;-74
2023/02/19 09:48:26;;;;;;;5.15;2.75;;;;;;;9.16;100.00;96052.75;4998355;28;20043;-75
2023/02/19 09:50:52;;;;;;;7.20;3.08;;;;;;;9.09;100.00;96044.25;5002901;28;20459;-74
2023/02/19 09:53:25;;;;;;;4.82;2.58;;;;;;;8.92;100.00;96054.06;4992068;28;20050;-75
2023/02/19 09:55:52;;;;;;;5.03;2.42;;;;;;;8.95;100.00;96053.56;4993219;28;20042;-78
2023/02/19 09:58:28;;;;;;;5.47;2.00;;;;;;;8.72;100.00;96065.09;4990865;28;20045;-79
2023/02/19 10:00:57;;;;;;;1.65;1.27;;;;;;;8.28;100.00;96066.59;4992593;28;20042;-74
2023/02/19 10:03:29;;;;;;;4.30;1.40;;;;;;;8.09;100.00;96060.81;4991363;28;20502;-77
2023/02/19 10:06:02;;;;;;;2.33;1.38;;;;;;;8.28;100.00;96076.31;4993300;28;20038;-75
2023/02/19 10:08:31;;;;;;;5.50;1.42;;;;;;;8.11;100.00;96066.59;4990776;28;20050;-75
2023/02/19 10:10:57;;;;;;;2.33;1.40;;;;;;;8.08;100.00;96072.34;4999350;28;20034;-78
2023/02/19 10:13:33;;;;;;;4.50;1.60;;;;;;;8.03;100.00;96074.91;4992831;28;20038;-78
2023/02/19 10:16:05;;;;;;;1.88;1.40;;;;;;;8.14;100.00;96066.13;5000703;28;20037;-75
2023/02/19 10:18:42;;;;;;;1.88;1.30;;;;;;;8.14;100.00;96060.88;4991232;28;20039;-75
2023/02/19 10:21:23;;;;;;;4.75;1.40;;;;;;;8.25;100.00;96068.91;4983883;28;20045;-75
2023/02/19 10:23:54;;;;;;;2.97;1.42;;;;;;;8.46;100.00;96073.44;4995840;28;20451;-75
2023/02/19 10:26:21;;;;;;;2.78;1.13;;;;;;;8.53;100.00;96068.00;4991810;28;20046;-76
2023/02/19 10:28:47;;;;;;;1.73;1.08;;;;;;;8.48;100.00;96081.84;4991500;28;20046;-76
2023/02/19 10:31:22;;;;;;;1.20;1.10;;;;;;;8.53;100.00;96069.84;4995497;28;20057;-75
2023/02/19 10:33:51;;;;;;;;;;;;;;;8.63;100.00;96072.59;5007521;28;20149;-75
2023/02/19 10:36:25;;;;;;;1.92;1.10;;;;;;;8.63;100.00;96083.09;4991561;28;19921;-75
2023/02/19 10:38:52;;;;;;;1.48;1.05;;;;;;;9.91;100.00;96085.50;4990404;28;20109;-74
2023/02/19 10:41:20;;;;;;;3.00;1.60;;;;;;;10.36;100.00;96073.78;4990107;28;20089;-72
2023/02/19 10:44:19;;;;;;;1.52;1.20;;;;;;;10.51;100.00;96063.31;4990118;28;20049;-72
2023/02/19 10:46:48;;;;;;;2.22;1.35;;;;;;;11.25;100.00;96066.81;4999663;28;20050;-74
2023/02/19 10:49:34;;;;;;;1.30;0.95;;;;;;;11.46;100.00;96074.75;4998456;28;20095;-73
2023/02/19 10:52:33;;;;;;;1.95;1.05;;;;;;;12.29;100.00;96063.19;4991283;28;20054;-74
2023/02/19 10:55:15;;;;;;;2.75;1.15;;;;;;;12.63;100.00;96052.03;4982270;28;20121;-74
2023/02/19 10:57:41;;;;;;;1.55;1.08;;;;;;;12.09;100.00;96053.44;4990500;28;20549;-74
2023/02/19 11:00:13;;;;;;;0.70;0.70;;;;;;;13.12;96.09;96062.97;4990538;28;20498;-74
2023/02/19 11:02:40;;;;;;;1.50;0.88;;;;;;;11.49;100.00;96058.41;4987538;28;20045;-74
2023/02/19 11:05:10;;;;;;;3.58;1.02;;;;;;;11.25;100.00;96056.25;4992193;28;20050;-73
2023/02/19 11:07:42;;;;;;;0.57;0.57;;;;;;;11.06;100.00;96055.13;4992176;28;20034;-73
2023/02/19 11:10:20;;;;;;;0.57;0.55;;;;;;;10.78;100.00;96041.34;4990726;28;20069;-73
2023/02/19 11:12:49;;;;;;;0.63;0.55;;;;;;;10.58;100.00;96042.84;4987771;28;20100;-74
2023/02/19 11:15:35;;;;;;;2.03;0.80;;;;;;;9.96;100.00;96040.88;4990313;28;20057;-73
2023/02/19 11:18:12;;;;;;;0.85;0.70;;;;;;;9.83;100.00;96042.88;4990293;28;20049;-74
2023/02/19 11:20:48;;;;;;;1.30;0.98;;;;;;;9.72;100.00;96056.97;4991269;28;20038;-74
2023/02/19 11:23:21;;;;;;;2.15;1.00;;;;;;;9.72;100.00;96056.97;4988159;28;20042;-74
2023/02/19 11:25:49;;;;;;;2.30;1.02;;;;;;;9.69;100.00;96067.97;4989135;28;20545;-73
2023/02/19 11:28:32;;;;;;;0.60;0.60;;;;;;;9.65;100.00;96064.25;4989252;28;20050;-75
2023/02/19 11:31:30;;;;;;;4.25;0.90;;;;;;;9.80;100.00;96059.13;4987281;28;20046;-75
2023/02/19 11:34:02;;;;;;;1.17;1.00;;;;;;;10.26;100.00;96049.97;4988981;28;20042;-73
2023/02/19 11:36:33;;;;;;;0.80;0.77;;;;;;;10.01;100.00;96064.56;4988950;28;20387;-74
2023/02/19 11:39:29;;;;;;;2.20;0.88;;;;;;;9.97;100.00;96063.47;4989258;28;20038;-75
2023/02/19 11:42:23;;;;;;;2.83;1.02;;;;;;;10.05;100.00;96057.75;4981123;28;20062;-74
2023/02/19 11:45:05;;;;;;;0.68;0.68;;;;;;;10.78;100.00;96057.16;4989008;28;20049;-75
2023/02/19 11:47:51;;;;;;;2.22;1.02;;;;;;;11.73;100.00;96050.00;4990983;28;20061;-75
2023/02/19 11:50:47;;;;;;;1.25;0.80;;;;;;;11.53;100.00;96040.25;4998230;28;20054;-75
2023/02/19 11:53:26;;;;;;;0.80;0.77;;;;;;;11.21;100.00;96044.66;4988451;28;20042;-75
2023/02/19 11:56:14;;;;;;;3.05;1.23;;;;;;;10.99;100.00;96050.13;4989142;28;20045;-75
2023/02/19 11:58:45;;;;;;;3.53;0.95;;;;;;;10.60;100.00;96057.59;4987685;28;20039;-74
2023/02/19 12:01:43;;;;;;;1.05;0.95;;;;;;;10.31;100.00;96057.91;5002513;28;20266;-76
2023/02/19 12:04:31;;;;;;;0.55;0.55;;;;;;;9.93;100.00;96092.09;4988355;28;20068;-75
2023/02/19 12:07:18;;;;;;;1.00;0.90;;;;;;;9.74;100.00;96081.19;5003737;28;20096;-74
2023/02/19 12:10:20;;;;;;;2.53;0.90;;;;;;;9.71;100.00;96060.63;4990629;28;20049;-74
2023/02/19 12:13:00;;;;;;;0.73;0.55;;;;;;;9.50;100.00;96065.69;5003734;28;20046;-71